Time;durP1;ratioP1;P1;durP2;ratioP2;P2;SDS_P1;SDS_P2;PMS_P1;PMS_P2;Temp;Humidity;BMP_temperature;BMP_pressure;BME280_temperature;BME280_humidity;BME280_pressure;Samples;Min_cycle;Max_cycle;Signal;HPM_P1;HPM_P2
2024/03/12 00:02:25;;;;;;;77.63;39.17;;;;;;;;;;5073051;28;20185;-52
2024/03/12 00:04:51;;;;;;;68.85;38.45;;;;;;;;;;5065265;28;20545;-52
2024/03/12 00:07:21;;;;;;;67.35;37.10;;;;;;;;;;5069927;28;20182;-52
2024/03/12 00:09:47;;;;;;;50.38;33.25;;;;;;;;;;5069988;28;20568;-52
2024/03/12 00:12:13;;;;;;;55.33;32.60;;;;;;;;;;5070027;28;20261;-52
2024/03/12 00:14:42;;;;;;;53.03;33.25;;;;;;;;;;5071249;28;20862;-52
2024/03/12 00:17:08;;;;;;;56.63;32.17;;;;;;;;;;5073187;28;20182;-52
2024/03/12 00:19:34;;;;;;;64.43;34.10;;;;;;;;;;5072785;28;20220;-52
2024/03/12 00:22:00;;;;;;;48.67;31.83;;;;;;;;;;5072256;28;20178;-52
2024/03/12 00:24:26;;;;;;;48.20;29.65;;;;;;;;;;5060463;28;20585;-52
2024/03/12 00:26:53;;;;;;;42.63;29.02;;;;;;;;;;5073037;28;20182;-52
2024/03/12 00:29:19;;;;;;;57.08;31.33;;;;;;;;;;5067875;28;20228;-52
2024/03/12 00:31:45;;;;;;;52.00;28.83;;;;;;;;;;5063222;28;20203;-52
2024/03/12 00:34:11;;;;;;;43.78;28.25;;;;;;;;;;5072591;28;20181;-52
2024/03/12 00:36:37;;;;;;;55.70;28.15;;;;;;;;;;5071613;28;20186;-52
2024/03/12 00:39:03;;;;;;;46.47;27.70;;;;;;;;;;5067601;28;20212;-52
2024/03/12 00:41:29;;;;;;;38.85;25.70;;;;;;;;;;5070107;28;20186;-52
2024/03/12 00:43:55;;;;;;;40.40;25.60;;;;;;;;;;5073311;28;20174;-52
2024/03/12 00:46:21;;;;;;;39.00;24.98;;;;;;;;;;5071204;28;20505;-52
2024/03/12 00:48:48;;;;;;;40.85;24.73;;;;;;;;;;5066885;28;20281;-52
2024/03/12 00:51:15;;;;;;;44.30;24.83;;;;;;;;;;5072865;28;20174;-52
2024/03/12 00:53:41;;;;;;;96.85;30.92;;;;;;;;;;5070140;28;20582;-52
2024/03/12 00:56:07;;;;;;;41.20;22.25;;;;;;;;;;5067135;28;20212;-52
2024/03/12 00:58:33;;;;;;;44.78;24.48;;;;;;;;;;5068386;28;20199;-52
2024/03/12 01:01:00;;;;;;;44.03;23.77;;;;;;;;;;5071473;28;20183;-52
2024/03/12 01:03:26;;;;;;;35.65;21.92;;;;;;;;;;5071885;28;20554;-52
2024/03/12 01:05:53;;;;;;;40.65;21.83;;;;;;;;;;5069898;28;20221;-52
2024/03/12 01:08:20;;;;;;;34.45;20.45;;;;;;;;;;5067700;28;20167;-52
2024/03/12 01:10:46;;;;;;;29.95;20.05;;;;;;;;;;5066316;28;20206;-52
2024/03/12 01:13:12;;;;;;;37.22;20.85;;;;;;;;;;5071660;28;20236;-52
2024/03/12 01:15:39;;;;;;;37.53;20.02;;;;;;;;;;5067886;28;20187;-51
2024/03/12 01:18:05;;;;;;;37.15;21.95;;;;;;;;;;5068826;28;20565;-52
2024/03/12 01:20:34;;;;;;;42.25;20.75;;;;;;;;;;5070892;28;20561;-52
2024/03/12 01:23:00;;;;;;;29.10;18.35;;;;;;;;;;5064767;28;20174;-52
2024/03/12 01:25:28;;;;;;;31.48;18.10;;;;;;;;;;5072007;28;20175;-52
2024/03/12 01:27:59;;;;;;;29.80;18.17;;;;;;;;;;5067960;28;20223;-52
2024/03/12 01:30:30;;;;;;;27.65;17.98;;;;;;;;;;5071519;28;20167;-52
2024/03/12 01:32:57;;;;;;;27.35;17.05;;;;;;;;;;5065759;28;20170;-52
2024/03/12 01:35:26;;;;;;;27.58;17.30;;;;;;;;;;5072217;28;20587;-52
2024/03/12 01:37:53;;;;;;;26.13;16.70;;;;;;;;;;5064548;28;20193;-52
2024/03/12 01:40:21;;;;;;;26.08;16.30;;;;;;;;;;5065563;28;20202;-52
2024/03/12 01:42:48;;;;;;;29.48;17.80;;;;;;;;;;5069176;28;20182;-52
2024/03/12 01:45:16;;;;;;;29.17;16.77;;;;;;;;;;5067918;28;20174;-52
2024/03/12 01:47:42;;;;;;;33.17;16.23;;;;;;;;;;5067205;28;20175;-52
2024/03/12 01:50:08;;;;;;;33.75;16.48;;;;;;;;;;5067690;28;20175;-52
2024/03/12 01:52:34;;;;;;;38.72;15.60;;;;;;;;;;5063859;28;20214;-52
2024/03/12 01:55:00;;;;;;;27.05;15.05;;;;;;;;;;5073010;28;20255;-51
2024/03/12 01:57:26;;;;;;;25.95;14.43;;;;;;;;;;5063075;28;20557;-52
2024/03/12 01:59:51;;;;;;;35.13;15.73;;;;;;;;;;5061227;28;20210;-52
2024/03/12 02:02:18;;;;;;;50.67;16.55;;;;;;;;;;5064625;28;20430;-52
2024/03/12 02:04:44;;;;;;;63.35;16.95;;;;;;;;;;5061477;28;20174;-52
2024/03/12 02:07:11;;;;;;;27.40;14.00;;;;;;;;;;5063944;28;20178;-52
2024/03/12 02:09:38;;;;;;;37.67;16.00;;;;;;;;;;5062434;28;20187;-52
2024/03/12 02:12:04;;;;;;;36.40;15.05;;;;;;;;;;5063013;28;20557;-52
2024/03/12 02:14:30;;;;;;;26.33;12.82;;;;;;;;;;5057035;28;20187;-52
2024/03/12 02:16:56;;;;;;;24.23;12.77;;;;;;;;;;5060529;28;20186;-52
2024/03/12 02:19:23;;;;;;;34.42;14.15;;;;;;;;;;5071942;28;20210;-52
2024/03/12 02:21:49;;;;;;;27.40;12.63;;;;;;;;;;5060157;28;20186;-52
2024/03/12 02:24:14;;;;;;;20.38;11.82;;;;;;;;;;5071197;28;20171;-52
2024/03/12 02:26:40;;;;;;;25.85;11.90;;;;;;;;;;5063737;28;20221;-52
2024/03/12 02:29:07;;;;;;;21.35;12.10;;;;;;;;;;5073242;28;20210;-52
2024/03/12 02:31:34;;;;;;;26.83;12.48;;;;;;;;;;5065349;28;20554;-52
2024/03/12 02:34:00;;;;;;;19.58;10.70;;;;;;;;;;5072792;28;20178;-52
2024/03/12 02:36:26;;;;;;;22.20;10.82;;;;;;;;;;5063190;28;20477;-51
2024/03/12 02:38:52;;;;;;;16.75;10.27;;;;;;;;;;5072791;28;20221;-52
2024/03/12 02:41:21;;;;;;;20.25;10.55;;;;;;;;;;5064890;28;20179;-52
2024/03/12 02:43:48;;;;;;;17.45;10.38;;;;;;;;;;5070557;28;20550;-52
2024/03/12 02:46:14;;;;;;;23.38;11.07;;;;;;;;;;5067121;28;20170;-52
2024/03/12 02:48:42;;;;;;;24.00;10.70;;;;;;;;;;5064828;28;20238;-52
2024/03/12 02:51:08;;;;;;;16.85;10.32;;;;;;;;;;5065915;28;20202;-52
2024/03/12 02:53:34;;;;;;;16.63;9.20;;;;;;;;;;5068098;28;20192;-52
2024/03/12 02:56:01;;;;;;;14.75;9.40;;;;;;;;;;5072386;28;20178;-52
2024/03/12 02:58:27;;;;;;;14.68;9.23;;;;;;;;;;5067975;28;20250;-52
2024/03/12 03:00:53;;;;;;;26.25;9.75;;;;;;;;;;5068389;28;20484;-52
2024/03/12 03:03:21;;;;;;;19.25;9.30;;;;;;;;;;5066157;28;20244;-52
2024/03/12 03:05:47;;;;;;;22.85;8.90;;;;;;;;;;5069647;28;20175;-52
2024/03/12 03:08:13;;;;;;;27.45;10.32;;;;;;;;;;5069913;28;20441;-52
2024/03/12 03:10:39;;;;;;;21.08;9.45;;;;;;;;;;5072248;28;20225;-52
2024/03/12 03:13:06;;;;;;;17.27;9.23;;;;;;;;;;5068500;28;20270;-52
2024/03/12 03:15:33;;;;;;;25.98;10.15;;;;;;;;;;5074873;28;20171;-52
2024/03/12 03:18:01;;;;;;;13.35;8.48;;;;;;;;;;5063215;28;20216;-52
2024/03/12 03:20:27;;;;;;;12.85;7.93;;;;;;;;;;5071136;28;20193;-52
2024/03/12 03:22:52;;;;;;;34.38;10.10;;;;;;;;;;5068676;28;20789;-52
2024/03/12 03:25:18;;;;;;;18.60;8.23;;;;;;;;;;5070977;28;20255;-52
2024/03/12 03:27:44;;;;;;;26.73;9.20;;;;;;;;;;5070304;28;20182;-52
2024/03/12 03:30:12;;;;;;;19.38;8.77;;;;;;;;;;5069968;28;20193;-52
2024/03/12 03:32:39;;;;;;;19.75;8.43;;;;;;;;;;5068417;28;20186;-52
2024/03/12 03:35:05;;;;;;;13.98;7.75;;;;;;;;;;5072450;28;20190;-52
2024/03/12 03:37:35;;;;;;;20.88;8.50;;;;;;;;;;5067136;28;20548;-52
2024/03/12 03:40:04;;;;;;;11.32;7.00;;;;;;;;;;5082912;28;20522;-52
2024/03/12 03:42:30;;;;;;;22.75;9.00;;;;;;;;;;5069046;28;20184;-52
2024/03/12 03:44:56;;;;;;;19.25;8.02;;;;;;;;;;5073309;28;20457;-52
2024/03/12 03:47:22;;;;;;;13.77;6.72;;;;;;;;;;5066194;28;20183;-52
2024/03/12 03:49:48;;;;;;;22.13;8.15;;;;;;;;;;5071689;28;20289;-52
2024/03/12 03:52:14;;;;;;;16.38;7.57;;;;;;;;;;5073142;28;20672;-52
2024/03/12 03:54:40;;;;;;;13.23;7.22;;;;;;;;;;5073557;28;20285;-52
2024/03/12 03:57:08;;;;;;;13.05;6.53;;;;;;;;;;5072888;28;20187;-52
2024/03/12 03:59:34;;;;;;;11.23;6.53;;;;;;;;;;5070950;28;20198;-52
2024/03/12 04:02:00;;;;;;;10.65;6.05;;;;;;;;;;5071535;28;20223;-52
2024/03/12 04:04:26;;;;;;;9.68;5.65;;;;;;;;;;5073817;28;20254;-52
2024/03/12 04:06:52;;;;;;;10.52;5.35;;;;;;;;;;5070257;28;20190;-52
2024/03/12 04:09:18;;;;;;;18.13;7.63;;;;;;;;;;5073392;28;20206;-52
2024/03/12 04:11:44;;;;;;;32.05;7.70;;;;;;;;;;5072253;28;20293;-52
2024/03/12 04:14:10;;;;;;;11.70;6.10;;;;;;;;;;5074524;28;20569;-52
2024/03/12 04:16:36;;;;;;;9.82;5.53;;;;;;;;;;5069065;28;20587;-52
2024/03/12 04:19:04;;;;;;;14.13;6.65;;;;;;;;;;5072522;28;20217;-52
2024/03/12 04:21:31;;;;;;;10.15;5.60;;;;;;;;;;5074056;28;20170;-52
2024/03/12 04:23:56;;;;;;;7.40;5.13;;;;;;;;;;5070243;28;20171;-47
2024/03/12 04:26:22;;;;;;;9.77;5.18;;;;;;;;;;5071880;28;20178;-48
2024/03/12 04:28:48;;;;;;;13.13;5.30;;;;;;;;;;5064720;28;20190;-45
2024/03/12 04:31:14;;;;;;;7.32;4.32;;;;;;;;;;5073224;28;20546;-44
2024/03/12 04:33:40;;;;;;;9.63;4.82;;;;;;;;;;5065784;28;20182;-51
2024/03/12 04:36:06;;;;;;;13.63;5.00;;;;;;;;;;5070562;28;20192;-47
2024/03/12 04:38:33;;;;;;;7.80;4.45;;;;;;;;;;5069541;28;20241;-46
2024/03/12 04:40:59;;;;;;;26.73;6.38;;;;;;;;;;5073335;28;20221;-46
2024/03/12 04:43:25;;;;;;;6.45;4.25;;;;;;;;;;5067509;28;20182;-46
2024/03/12 04:45:51;;;;;;;13.88;5.75;;;;;;;;;;5069738;28;20458;-46
2024/03/12 04:48:16;;;;;;;17.98;5.30;;;;;;;;;;5063053;28;20181;-46
2024/03/12 04:50:42;;;;;;;17.40;4.65;;;;;;;;;;5071678;28;20213;-46
2024/03/12 04:53:08;;;;;;;10.32;4.30;;;;;;;;;;5071932;28;20174;-46
2024/03/12 04:55:36;;;;;;;7.22;3.53;;;;;;;;;;5071919;28;20593;-46
2024/03/12 04:58:04;;;;;;;18.55;5.70;;;;;;;;;;5070114;28;20293;-52
2024/03/12 05:00:30;;;;;;;31.67;8.00;;;;;;;;;;5068866;28;20182;-53
2024/03/12 05:02:56;;;;;;;36.55;8.00;;;;;;;;;;5067317;28;20481;-50
2024/03/12 05:05:23;;;;;;;23.20;7.00;;;;;;;;;;5074432;28;20186;-44
2024/03/12 05:07:49;;;;;;;39.20;7.63;;;;;;;;;;5068970;28;20557;-49
2024/03/12 05:10:16;;;;;;;22.52;7.03;;;;;;;;;;5072973;28;20378;-47
2024/03/12 05:12:41;;;;;;;26.85;6.80;;;;;;;;;;5059916;28;20187;-49
2024/03/12 05:15:09;;;;;;;16.80;5.93;;;;;;;;;;5073963;28;20206;-48
2024/03/12 05:17:35;;;;;;;22.23;6.43;;;;;;;;;;5066653;28;20178;-43
2024/03/12 05:20:01;;;;;;;11.18;4.70;;;;;;;;;;5071030;28;20245;-42
2024/03/12 05:22:27;;;;;;;16.90;5.22;;;;;;;;;;5069621;28;20202;-49
2024/03/12 05:24:53;;;;;;;36.42;6.35;;;;;;;;;;5069074;28;20560;-50
2024/03/12 05:27:32;;;;;;;16.25;4.53;;;;;;;;;;5071504;28;20197;-49
2024/03/12 05:29:59;;;;;;;33.63;7.20;;;;;;;;;;5071974;28;20258;-49
2024/03/12 05:32:25;;;;;;;53.88;9.13;;;;;;;;;;5065758;28;20187;-49
2024/03/12 05:34:58;;;;;;;11.68;4.88;;;;;;;;;;5068863;28;20237;-49
2024/03/12 05:37:40;;;;;;;11.15;3.92;;;;;;;;;;5063238;28;20191;-50
2024/03/12 05:40:13;;;;;;;9.75;4.00;;;;;;;;;;5069501;28;20626;-50
2024/03/12 05:48:12;;;;;;;7.57;3.55;;;;;;;;;;5071963;28;20227;-50
2024/03/12 05:50:38;;;;;;;8.60;3.95;;;;;;;;;;5063523;28;20185;-48
2024/03/12 05:53:04;;;;;;;10.10;3.65;;;;;;;;;;5069738;28;20194;-49
2024/03/12 05:55:30;;;;;;;6.93;3.20;;;;;;;;;;5073100;28;20186;-50
2024/03/12 05:57:56;;;;;;;5.22;2.85;;;;;;;;;;5071436;28;20240;-49
2024/03/12 06:00:23;;;;;;;10.23;3.70;;;;;;;;;;5062296;28;20232;-49
2024/03/12 06:02:49;;;;;;;7.35;3.47;;;;;;;;;;5061366;28;20598;-50
2024/03/12 06:05:16;;;;;;;10.48;3.05;;;;;;;;;;5071105;28;20186;-49
2024/03/12 06:07:42;;;;;;;6.13;3.17;;;;;;;;;;5071235;28;20197;-49
2024/03/12 06:10:08;;;;;;;8.48;3.15;;;;;;;;;;5057805;28;20179;-49
2024/03/12 06:12:34;;;;;;;6.22;3.10;;;;;;;;;;5067647;28;20182;-48
2024/03/12 06:15:00;;;;;;;8.63;2.92;;;;;;;;;;5062397;28;20570;-49
2024/03/12 06:17:26;;;;;;;6.63;3.13;;;;;;;;;;5066194;28;20206;-48
2024/03/12 06:19:52;;;;;;;5.80;2.90;;;;;;;;;;5057797;28;20203;-49
2024/03/12 06:22:18;;;;;;;7.53;3.22;;;;;;;;;;5063072;28;20182;-50
2024/03/12 06:24:47;;;;;;;8.70;3.08;;;;;;;;;;5067357;28;20214;-50
2024/03/12 06:27:13;;;;;;;5.38;2.90;;;;;;;;;;5067113;28;20893;-50
2024/03/12 06:29:39;;;;;;;7.00;3.33;;;;;;;;;;5065773;28;20186;-49
2024/03/12 06:32:06;;;;;;;7.03;3.35;;;;;;;;;;5066571;28;20267;-49
2024/03/12 06:34:32;;;;;;;5.72;2.90;;;;;;;;;;5072128;28;20182;-49
2024/03/12 06:36:58;;;;;;;3.78;2.50;;;;;;;;;;5061356;28;20202;-50
2024/03/12 06:39:35;;;;;;;5.50;2.65;;;;;;;;;;5062793;28;20249;-49
2024/03/12 06:42:01;;;;;;;7.03;2.70;;;;;;;;;;5070178;28;20181;-49
2024/03/12 06:44:28;;;;;;;8.57;2.72;;;;;;;;;;5073865;28;20178;-49
2024/03/12 06:46:54;;;;;;;4.00;2.30;;;;;;;;;;5065224;28;20179;-49
2024/03/12 06:49:20;;;;;;;4.70;2.65;;;;;;;;;;5059137;28;20186;-49
2024/03/12 06:51:47;;;;;;;7.43;2.25;;;;;;;;;;5069002;28;20229;-49
2024/03/12 06:54:13;;;;;;;4.25;2.58;;;;;;;;;;5071516;28;20225;-49
2024/03/12 06:56:46;;;;;;;4.53;2.70;;;;;;;;;;5068062;28;20232;-49
2024/03/12 06:59:15;;;;;;;8.60;3.10;;;;;;;;;;5064615;28;20202;-50
2024/03/12 07:01:41;;;;;;;4.35;2.83;;;;;;;;;;5067912;28;20174;-50
2024/03/12 07:04:10;;;;;;;5.60;3.08;;;;;;;;;;5071461;28;20175;-49
2024/03/12 07:06:43;;;;;;;4.90;2.70;;;;;;;;;;5071107;28;20175;-50
2024/03/12 07:09:15;;;;;;;4.38;3.10;;;;;;;;;;5067486;28;20581;-49
2024/03/12 07:11:41;;;;;;;4.13;2.60;;;;;;;;;;5069283;28;20190;-49
2024/03/12 07:14:23;;;;;;;4.15;2.50;;;;;;;;;;5070193;28;20186;-48
2024/03/12 07:16:52;;;;;;;4.78;2.58;;;;;;;;;;5065237;28;20813;-49
2024/03/12 07:19:25;;;;;;;8.52;2.92;;;;;;;;;;5065801;28;20346;-49
2024/03/12 07:21:54;;;;;;;3.47;2.63;;;;;;;;;;5066958;28;20178;-48
2024/03/12 07:24:20;;;;;;;4.32;2.80;;;;;;;;;;5073193;28;20185;-53
2024/03/12 07:26:47;;;;;;;5.05;3.17;;;;;;;;;;5064495;28;20194;-49
2024/03/12 07:29:13;;;;;;;4.90;2.50;;;;;;;;;;5074526;28;20206;-49
2024/03/12 07:31:39;;;;;;;5.88;3.35;;;;;;;;;;5064449;28;20299;-49
2024/03/12 07:34:05;;;;;;;4.53;2.88;;;;;;;;;;5069110;28;20183;-50
2024/03/12 07:36:33;;;;;;;3.67;2.35;;;;;;;;;;5069652;28;20771;-49
2024/03/12 07:38:59;;;;;;;4.72;2.80;;;;;;;;;;5072665;28;20609;-49
2024/03/12 07:41:25;;;;;;;3.50;2.55;;;;;;;;;;5069126;28;20178;-49
2024/03/12 07:43:51;;;;;;;5.82;2.42;;;;;;;;;;5071563;28;20182;-49
2024/03/12 07:46:17;;;;;;;2.90;2.20;;;;;;;;;;5067426;28;20243;-48
2024/03/12 07:48:43;;;;;;;3.83;2.53;;;;;;;;;;5070996;28;20178;-49
2024/03/12 07:51:09;;;;;;;3.28;2.38;;;;;;;;;;5062099;28;20190;-49
2024/03/12 07:53:36;;;;;;;3.55;2.50;;;;;;;;;;5070816;28;20867;-49
2024/03/12 07:56:05;;;;;;;4.13;2.47;;;;;;;;;;5066804;28;20182;-50
2024/03/12 07:58:30;;;;;;;4.00;2.38;;;;;;;;;;5069279;28;20264;-49
2024/03/12 08:00:56;;;;;;;4.00;2.20;;;;;;;;;;5067469;28;20187;-49
2024/03/12 08:03:22;;;;;;;3.47;2.22;;;;;;;;;;5066590;28;20174;-49
2024/03/12 08:05:48;;;;;;;4.88;2.28;;;;;;;;;;5072784;28;20248;-49
2024/03/12 08:08:14;;;;;;;2.63;2.17;;;;;;;;;;5073712;28;20685;-49
2024/03/12 08:10:40;;;;;;;4.15;2.00;;;;;;;;;;5063302;28;20494;-48
2024/03/12 08:13:06;;;;;;;3.53;2.35;;;;;;;;;;5072403;28;20237;-50
2024/03/12 08:15:32;;;;;;;3.47;2.25;;;;;;;;;;5069744;28;20206;-49
2024/03/12 08:17:58;;;;;;;4.88;2.45;;;;;;;;;;5065103;28;20236;-48
2024/03/12 08:20:24;;;;;;;2.95;2.28;;;;;;;;;;5069479;28;20500;-49
2024/03/12 08:22:50;;;;;;;4.55;2.42;;;;;;;;;;5074656;28;20450;-48
2024/03/12 08:25:16;;;;;;;3.40;2.05;;;;;;;;;;5070303;28;20217;-50
2024/03/12 08:27:42;;;;;;;3.22;2.17;;;;;;;;;;5071521;28;20182;-50
2024/03/12 08:30:09;;;;;;;2.78;2.10;;;;;;;;;;5071205;28;20205;-49
2024/03/12 08:32:36;;;;;;;2.50;2.00;;;;;;;;;;5073975;28;20190;-49
2024/03/12 08:35:02;;;;;;;4.15;2.28;;;;;;;;;;5070500;28;20475;-48
2024/03/12 08:37:28;;;;;;;3.60;2.33;;;;;;;;;;5074394;28;20226;-50
2024/03/12 08:39:54;;;;;;;2.47;1.98;;;;;;;;;;5068185;28;20202;-49
2024/03/12 08:42:20;;;;;;;2.00;1.70;;;;;;;;;;5077477;28;20232;-49
2024/03/12 08:44:46;;;;;;;3.13;2.33;;;;;;;;;;5070494;28;20217;-49
2024/03/12 08:47:12;;;;;;;2.10;1.90;;;;;;;;;;5074323;28;20218;-49
2024/03/12 08:49:38;;;;;;;2.55;2.03;;;;;;;;;;5068205;28;20197;-49
2024/03/12 08:52:04;;;;;;;2.50;1.75;;;;;;;;;;5073769;28;20190;-50
2024/03/12 08:54:31;;;;;;;3.55;1.95;;;;;;;;;;5073862;28;20194;-50
2024/03/12 08:56:57;;;;;;;2.33;1.85;;;;;;;;;;5070728;28;20191;-49
2024/03/12 08:59:23;;;;;;;2.97;2.10;;;;;;;;;;5071935;28;20222;-49
2024/03/12 09:01:49;;;;;;;2.80;1.85;;;;;;;;;;5069918;28;20229;-49
2024/03/12 09:04:15;;;;;;;1.90;1.65;;;;;;;;;;5073444;28;20166;-50
2024/03/12 09:06:41;;;;;;;2.63;1.83;;;;;;;;;;5073447;28;20197;-50
2024/03/12 09:09:07;;;;;;;2.17;1.83;;;;;;;;;;5067718;28;20174;-50
2024/03/12 09:11:33;;;;;;;2.88;1.83;;;;;;;;;;5071024;28;20518;-50
2024/03/12 09:14:00;;;;;;;3.05;1.80;;;;;;;;;;5073355;28;20190;-49
2024/03/12 09:16:26;;;;;;;2.53;2.08;;;;;;;;;;5070728;28;20182;-49
2024/03/12 09:18:53;;;;;;;2.25;1.63;;;;;;;;;;5069276;28;20207;-48
2024/03/12 09:21:20;;;;;;;2.35;1.70;;;;;;;;;;5065214;28;20250;-49
2024/03/12 09:23:47;;;;;;;3.45;1.95;;;;;;;;;;5073439;28;20179;-49
2024/03/12 09:26:13;;;;;;;1.98;1.60;;;;;;;;;;5071527;28;20170;-49
2024/03/12 09:28:39;;;;;;;3.85;1.80;;;;;;;;;;5072081;28;20218;-49
2024/03/12 09:31:08;;;;;;;1.98;1.40;;;;;;;;;;5068523;28;20267;-50
2024/03/12 09:33:34;;;;;;;2.35;1.90;;;;;;;;;;5071906;28;20175;-50
2024/03/12 09:36:00;;;;;;;2.25;1.30;;;;;;;;;;5071918;28;20197;-50
2024/03/12 09:38:26;;;;;;;2.22;1.63;;;;;;;;;;5072087;28;20194;-50
2024/03/12 09:41:01;;;;;;;1.95;1.60;;;;;;;;;;5086591;28;20545;-50
2024/03/12 09:43:29;;;;;;;1.70;1.60;;;;;;;;;;5068476;28;20277;-49
2024/03/12 09:45:56;;;;;;;1.92;1.50;;;;;;;;;;5070434;28;20581;-49
2024/03/12 09:48:22;;;;;;;1.52;1.42;;;;;;;;;;5080718;28;20185;-49
2024/03/12 09:50:49;;;;;;;1.88;1.58;;;;;;;;;;5064511;28;20179;-49
2024/03/12 09:53:15;;;;;;;2.67;1.33;;;;;;;;;;5072350;28;20281;-49
2024/03/12 09:55:41;;;;;;;1.60;1.50;;;;;;;;;;5070886;28;20186;-50
2024/03/12 09:58:08;;;;;;;1.55;1.45;;;;;;;;;;5073560;28;20337;-49
2024/03/12 10:00:37;;;;;;;1.80;1.63;;;;;;;;;;5067917;28;20241;-49
2024/03/12 10:03:06;;;;;;;2.20;1.60;;;;;;;;;;5064572;28;20440;-48
2024/03/12 10:05:33;;;;;;;2.38;1.52;;;;;;;;;;5073358;28;20442;-49
2024/03/12 10:08:12;;;;;;;2.13;1.50;;;;;;;;;;5074539;28;20170;-49
2024/03/12 10:10:39;;;;;;;1.83;1.45;;;;;;;;;;5063390;28;20549;-49
2024/03/12 10:13:12;;;;;;;2.28;1.70;;;;;;;;;;5059364;28;20217;-49
2024/03/12 10:15:47;;;;;;;1.73;1.35;;;;;;;;;;5072903;28;20264;-48
2024/03/12 10:18:16;;;;;;;1.67;1.35;;;;;;;;;;5071068;28;20193;-49
2024/03/12 10:21:01;;;;;;;1.42;1.33;;;;;;;;;;5064821;28;20328;-49
2024/03/12 10:23:28;;;;;;;1.40;1.20;;;;;;;;;;5071070;28;20183;-49
2024/03/12 10:26:11;;;;;;;2.22;1.58;;;;;;;;;;5069090;28;20187;-50
2024/03/12 10:28:38;;;;;;;1.50;1.40;;;;;;;;;;5073001;28;20244;-49
2024/03/12 10:31:08;;;;;;;1.20;1.10;;;;;;;;;;5076751;28;20173;-49
2024/03/12 10:33:34;;;;;;;2.33;1.50;;;;;;;;;;5080948;28;20648;-49
2024/03/12 10:36:00;;;;;;;2.00;1.40;;;;;;;;;;5069772;28;20194;-49
2024/03/12 10:38:27;;;;;;;1.73;1.23;;;;;;;;;;5076842;28;20186;-48
2024/03/12 10:40:59;;;;;;;2.45;1.60;;;;;;;;;;5073957;28;20573;-49
2024/03/12 10:43:25;;;;;;;1.65;1.42;;;;;;;;;;5074991;28;20202;-49
2024/03/12 10:45:52;;;;;;;2.40;1.38;;;;;;;;;;5086829;28;20190;-49
2024/03/12 10:48:18;;;;;;;1.20;1.10;;;;;;;;;;5070272;28;20215;-49
2024/03/12 10:50:45;;;;;;;2.88;1.40;;;;;;;;;;5074283;28;20178;-49
2024/03/12 10:53:11;;;;;;;1.50;1.30;;;;;;;;;;5074929;28;20182;-50
2024/03/12 10:55:38;;;;;;;1.00;0.90;;;;;;;;;;5074741;28;20187;-49
2024/03/12 10:58:08;;;;;;;1.52;1.33;;;;;;;;;;5077155;28;20187;-49
2024/03/12 11:00:37;;;;;;;1.40;1.23;;;;;;;;;;5075844;28;20295;-49
2024/03/12 11:03:05;;;;;;;1.25;1.10;;;;;;;;;;5076314;28;20443;-49
2024/03/12 11:05:32;;;;;;;1.30;1.20;;;;;;;;;;5072358;28;20191;-49
2024/03/12 11:07:59;;;;;;;1.88;1.55;;;;;;;;;;5072753;28;20190;-50
2024/03/12 11:10:27;;;;;;;1.60;1.30;;;;;;;;;;5068326;28;20261;-49
2024/03/12 11:12:54;;;;;;;1.27;1.00;;;;;;;;;;5068538;28;20202;-49
2024/03/12 11:15:20;;;;;;;1.58;1.30;;;;;;;;;;5072884;28;20282;-49
2024/03/12 11:17:48;;;;;;;2.35;1.30;;;;;;;;;;5070933;28;20275;-50
2024/03/12 11:20:15;;;;;;;1.30;1.08;;;;;;;;;;5074620;28;20332;-49
2024/03/12 11:22:44;;;;;;;1.52;1.27;;;;;;;;;;5076025;28;20533;-49
2024/03/12 11:25:14;;;;;;;1.33;1.23;;;;;;;;;;5073860;28;20210;-49
2024/03/12 11:27:41;;;;;;;1.40;1.30;;;;;;;;;;5072673;28;20290;-50
2024/03/12 11:30:08;;;;;;;1.27;1.17;;;;;;;;;;5073638;28;20186;-49
2024/03/12 11:32:50;;;;;;;1.20;1.10;;;;;;;;;;5069096;28;20255;-49
2024/03/12 11:35:22;;;;;;;1.55;1.20;;;;;;;;;;5073421;28;20190;-50
2024/03/12 11:38:00;;;;;;;1.17;1.08;;;;;;;;;;5066294;28;20271;-49
2024/03/12 11:40:27;;;;;;;1.48;1.33;;;;;;;;;;5070832;28;20202;-49
2024/03/12 11:42:56;;;;;;;1.80;1.10;;;;;;;;;;5070894;28;20182;-48
2024/03/12 11:45:34;;;;;;;2.00;1.08;;;;;;;;;;5072959;28;20292;-49
2024/03/12 11:48:00;;;;;;;1.40;1.30;;;;;;;;;;5072444;28;20182;-49
2024/03/12 11:50:31;;;;;;;1.40;1.30;;;;;;;;;;5074119;28;20179;-49
2024/03/12 11:53:15;;;;;;;1.35;1.10;;;;;;;;;;5075300;28;20187;-49
2024/03/12 11:55:54;;;;;;;1.65;1.27;;;;;;;;;;5068802;28;20523;-49
2024/03/12 11:58:20;;;;;;;1.20;1.10;;;;;;;;;;5075040;28;20689;-49
2024/03/12 12:00:50;;;;;;;2.40;1.30;;;;;;;;;;5074764;28;20250;-50
2024/03/12 12:03:17;;;;;;;1.20;1.00;;;;;;;;;;5075294;28;20193;-49
2024/03/12 12:05:47;;;;;;;1.55;1.45;;;;;;;;;;5069632;28;20170;-49
2024/03/12 12:08:16;;;;;;;1.20;1.10;;;;;;;;;;5074596;28;20268;-50
2024/03/12 12:10:42;;;;;;;2.15;1.30;;;;;;;;;;5071198;28;20239;-48
2024/03/12 12:13:15;;;;;;;1.40;1.10;;;;;;;;;;5068157;28;20312;-50
2024/03/12 12:15:41;;;;;;;1.60;1.00;;;;;;;;;;5066991;28;20213;-50
2024/03/12 12:18:10;;;;;;;1.00;0.93;;;;;;;;;;5074984;28;20607;-50
2024/03/12 12:20:37;;;;;;;1.33;1.23;;;;;;;;;;5072647;28;20206;-50
2024/03/12 12:23:03;;;;;;;1.17;1.08;;;;;;;;;;5071794;28;20185;-49
2024/03/12 12:25:29;;;;;;;1.17;1.05;;;;;;;;;;5067049;28;20523;-50
2024/03/12 12:27:55;;;;;;;1.30;1.20;;;;;;;;;;5073700;28;20193;-49
2024/03/12 12:30:22;;;;;;;1.25;1.10;;;;;;;;;;5074224;28;20182;-48
2024/03/12 12:32:49;;;;;;;2.30;1.20;;;;;;;;;;5068930;28;20197;-50
2024/03/12 12:35:19;;;;;;;1.60;1.30;;;;;;;;;;5073316;28;20269;-50
2024/03/12 12:37:46;;;;;;;1.52;1.30;;;;;;;;;;5069463;28;20269;-48
2024/03/12 12:40:20;;;;;;;2.13;1.23;;;;;;;;;;5072140;28;20217;-48
2024/03/12 12:42:50;;;;;;;2.90;1.20;;;;;;;;;;5069772;28;20178;-49
2024/03/12 12:45:16;;;;;;;1.58;1.45;;;;;;;;;;5073263;28;20588;-50
2024/03/12 12:47:48;;;;;;;1.58;1.48;;;;;;;;;;5071950;28;20209;-50
2024/03/12 12:50:24;;;;;;;1.52;1.13;;;;;;;;;;5071718;28;20210;-50
2024/03/12 12:52:56;;;;;;;1.70;1.15;;;;;;;;;;5072522;28;20182;-48
2024/03/12 12:55:22;;;;;;;1.52;1.00;;;;;;;;;;5073316;28;20181;-48
2024/03/12 12:57:57;;;;;;;2.88;1.15;;;;;;;;;;5074587;28;20182;-50
2024/03/12 13:00:24;;;;;;;1.45;1.08;;;;;;;;;;5072136;28;20596;-49
2024/03/12 13:02:49;;;;;;;1.48;1.10;;;;;;;;;;5070235;28;20210;-50
2024/03/12 13:05:22;;;;;;;1.10;1.00;;;;;;;;;;5069550;28;20179;-49
2024/03/12 13:07:48;;;;;;;2.00;1.30;;;;;;;;;;5066859;28;20231;-49
2024/03/12 13:10:18;;;;;;;3.38;1.23;;;;;;;;;;5072395;28;20186;-49
2024/03/12 13:12:44;;;;;;;2.38;1.40;;;;;;;;;;5073544;28;20217;-50
2024/03/12 13:15:27;;;;;;;1.67;1.35;;;;;;;;;;5071210;28;20182;-49
2024/03/12 13:17:53;;;;;;;3.15;1.10;;;;;;;;;;5069158;28;20190;-49
2024/03/12 13:20:19;;;;;;;1.45;1.20;;;;;;;;;;5069059;28;20728;-50
2024/03/12 13:22:50;;;;;;;1.35;1.20;;;;;;;;;;5072257;28;20429;-49
2024/03/12 13:25:16;;;;;;;1.55;1.10;;;;;;;;;;5059562;28;20183;-49
2024/03/12 13:27:43;;;;;;;2.05;1.38;;;;;;;;;;5064158;28;20193;-49
2024/03/12 13:30:12;;;;;;;1.30;1.20;;;;;;;;;;5072087;28;20537;-50
2024/03/12 13:32:38;;;;;;;1.10;1.00;;;;;;;;;;5070672;28;20174;-49
2024/03/12 13:35:04;;;;;;;1.50;1.27;;;;;;;;;;5070182;28;20478;-49
2024/03/12 13:37:30;;;;;;;1.63;1.40;;;;;;;;;;5068085;28;20448;-49
2024/03/12 13:39:56;;;;;;;1.58;1.40;;;;;;;;;;5066895;28;20617;-49
2024/03/12 13:42:22;;;;;;;1.33;1.23;;;;;;;;;;5070898;28;20224;-49
2024/03/12 13:44:48;;;;;;;2.58;1.58;;;;;;;;;;5064355;28;20266;-49
2024/03/12 13:47:15;;;;;;;2.65;1.33;;;;;;;;;;5062624;28;20647;-50
2024/03/12 13:49:42;;;;;;;2.60;1.48;;;;;;;;;;5064458;28;20202;-49
2024/03/12 13:52:07;;;;;;;1.67;1.30;;;;;;;;;;5067839;28;20644;-50
2024/03/12 13:54:33;;;;;;;3.38;1.30;;;;;;;;;;5072610;28;20191;-50
2024/03/12 13:56:59;;;;;;;1.38;1.27;;;;;;;;;;5075731;28;20178;-49
2024/03/12 13:59:25;;;;;;;1.40;1.30;;;;;;;;;;5067644;28;20206;-49
2024/03/12 14:01:52;;;;;;;1.70;1.27;;;;;;;;;;5059601;28;20194;-50
2024/03/12 14:04:18;;;;;;;3.17;1.60;;;;;;;;;;5060323;28;20203;-50
2024/03/12 14:06:44;;;;;;;1.88;1.33;;;;;;;;;;5059808;28;20223;-50
2024/03/12 14:09:14;;;;;;;3.10;1.60;;;;;;;;;;5059573;28;20528;-49
2024/03/12 14:11:41;;;;;;;2.33;1.45;;;;;;;;;;5059244;28;20190;-49
2024/03/12 14:14:11;;;;;;;3.08;1.58;;;;;;;;;;5062774;28;20183;-49
2024/03/12 14:16:37;;;;;;;2.78;1.85;;;;;;;;;;5063544;28;20310;-49
2024/03/12 14:19:03;;;;;;;2.42;1.40;;;;;;;;;;5074865;28;20294;-50
2024/03/12 14:21:32;;;;;;;2.55;1.50;;;;;;;;;;5073423;28;20205;-50
2024/03/12 14:24:01;;;;;;;2.05;1.50;;;;;;;;;;5058904;28;20213;-49
2024/03/12 14:26:27;;;;;;;1.85;1.23;;;;;;;;;;5067595;28;20269;-49
2024/03/12 14:28:54;;;;;;;1.67;1.58;;;;;;;;;;5064503;28;20517;-49
2024/03/12 14:31:20;;;;;;;2.15;1.38;;;;;;;;;;5072211;28;20194;-48
2024/03/12 14:33:47;;;;;;;1.63;1.20;;;;;;;;;;5068211;28;20182;-48
2024/03/12 14:36:14;;;;;;;3.42;1.45;;;;;;;;;;5061694;28;20484;-50
2024/03/12 14:38:41;;;;;;;2.17;1.20;;;;;;;;;;5070324;28;20197;-49
2024/03/12 14:41:07;;;;;;;2.45;1.40;;;;;;;;;;5060454;28;20457;-50
2024/03/12 14:43:32;;;;;;;2.50;1.27;;;;;;;;;;5066491;28;20182;-49